ICE432 BIKF-EGPF
Flight info
| Callsign | ICE432 |
|---|---|
| Flight time | 1h 47m |
| Altitude | 37000 |
| Route | OSKUM3A OSKUM DCT RATSU/N0461F370 DCT BARKU DCT BRUCE |
| Aircraft | B38M/M-SDE1FGHILORVWXY/HB1 |
Departure
| Time | 2026-05-06 11:16 |
|---|---|
| Airport | Keflavik International Airport (BIKF) |
Arrival
| Time | 2026-05-06 13:04 |
|---|---|
| Airport | Glasgow Airport (EGPF) |
| Time | Latitude | Longitude | Altitude | Speed | Heading |
|---|---|---|---|---|---|
| 2026-05-06 11:01 | 63.99323 | -22.61814 | 142 ft | 0 kts | 90° |
| 2026-05-06 11:04 | 63.99323 | -22.61823 | 142 ft | 3 kts | 90° |
| 2026-05-06 11:04 | 63.99323 | -22.61883 | 144 ft | 4 kts | 90° |
| 2026-05-06 11:05 | 63.99323 | -22.61953 | 145 ft | 4 kts | 104° |
| 2026-05-06 11:05 | 63.99336 | -22.61984 | 145 ft | 4 kts | 172° |
| 2026-05-06 11:05 | 63.99348 | -22.61986 | 145 ft | 1 kts | 180° |
| 2026-05-06 11:05 | 63.99338 | -22.61986 | 145 ft | 0 kts | 180° |
| 2026-05-06 11:08 | 63.99335 | -22.61986 | 145 ft | 2 kts | 180° |
| 2026-05-06 11:08 | 63.99289 | -22.61987 | 145 ft | 12 kts | 180° |
| 2026-05-06 11:09 | 63.99192 | -22.61981 | 147 ft | 11 kts | 162° |
| 2026-05-06 11:09 | 63.99173 | -22.61874 | 146 ft | 7 kts | 91° |
| 2026-05-06 11:09 | 63.99173 | -22.61761 | 148 ft | 8 kts | 91° |
| 2026-05-06 11:09 | 63.99175 | -22.61548 | 153 ft | 25 kts | 86° |
| 2026-05-06 11:10 | 63.99173 | -22.61195 | 160 ft | 14 kts | 89° |
| 2026-05-06 11:10 | 63.99166 | -22.60995 | 166 ft | 12 kts | 115° |
| 2026-05-06 11:10 | 63.99107 | -22.60937 | 169 ft | 9 kts | 179° |
| 2026-05-06 11:10 | 63.99043 | -22.60937 | 172 ft | 10 kts | 181° |
| 2026-05-06 11:11 | 63.98950 | -22.60940 | 173 ft | 18 kts | 181° |
| 2026-05-06 11:11 | 63.98783 | -22.60940 | 168 ft | 30 kts | 180° |
| 2026-05-06 11:11 | 63.98568 | -22.60939 | 171 ft | 32 kts | 180° |
| 2026-05-06 11:11 | 63.98369 | -22.60939 | 168 ft | 21 kts | 180° |
| 2026-05-06 11:12 | 63.98291 | -22.60940 | 167 ft | 22 kts | 180° |
| 2026-05-06 11:12 | 63.98144 | -22.60940 | 169 ft | 23 kts | 180° |
| 2026-05-06 11:12 | 63.97979 | -22.60941 | 171 ft | 26 kts | 179° |
| 2026-05-06 11:12 | 63.97787 | -22.60940 | 172 ft | 29 kts | 180° |
| 2026-05-06 11:13 | 63.97580 | -22.60940 | 170 ft | 31 kts | 180° |
| 2026-05-06 11:13 | 63.97354 | -22.60939 | 165 ft | 34 kts | 180° |
| 2026-05-06 11:13 | 63.97131 | -22.60939 | 158 ft | 32 kts | 180° |
| 2026-05-06 11:13 | 63.96896 | -22.60940 | 149 ft | 36 kts | 180° |
| 2026-05-06 11:14 | 63.96699 | -22.60940 | 142 ft | 28 kts | 180° |
| 2026-05-06 11:14 | 63.96535 | -22.60942 | 137 ft | 18 kts | 180° |
| 2026-05-06 11:14 | 63.96462 | -22.60865 | 139 ft | 6 kts | 101° |
| 2026-05-06 11:14 | 63.96459 | -22.60797 | 140 ft | 3 kts | 90° |
| 2026-05-06 11:15 | 63.96460 | -22.60744 | 142 ft | 6 kts | 87° |
| 2026-05-06 11:15 | 63.96462 | -22.60635 | 146 ft | 7 kts | 87° |
| 2026-05-06 11:15 | 63.96476 | -22.60568 | 147 ft | 4 kts | 46° |
| 2026-05-06 11:15 | 63.96497 | -22.60541 | 148 ft | 3 kts | 6° |
| 2026-05-06 11:16 | 63.96524 | -22.60540 | 149 ft | 24 kts | 1° |
| 2026-05-06 11:16 | 63.96984 | -22.60543 | 163 ft | 106 kts | 0° |
| 2026-05-06 11:16 | 63.97918 | -22.60516 | 353 ft | 158 kts | 5° |
| 2026-05-06 11:16 | 63.98997 | -22.60541 | 933 ft | 188 kts | 2° |
| 2026-05-06 11:17 | 64.00361 | -22.60677 | 1999 ft | 198 kts | 359° |
| 2026-05-06 11:17 | 64.01718 | -22.60950 | 3051 ft | 204 kts | 6° |
| 2026-05-06 11:17 | 64.03113 | -22.60837 | 4083 ft | 198 kts | 8° |
| 2026-05-06 11:17 | 64.04532 | -22.60544 | 4836 ft | 213 kts | 22° |
| 2026-05-06 11:18 | 64.05745 | -22.58595 | 5602 ft | 223 kts | 54° |
| 2026-05-06 11:18 | 64.06320 | -22.55202 | 6359 ft | 242 kts | 81° |
| 2026-05-06 11:18 | 64.06327 | -22.51259 | 7263 ft | 251 kts | 88° |
| 2026-05-06 11:18 | 64.06319 | -22.47230 | 8265 ft | 254 kts | 87° |
| 2026-05-06 11:19 | 64.06281 | -22.43227 | 9309 ft | 259 kts | 93° |
| 2026-05-06 11:19 | 64.05675 | -22.39288 | 10284 ft | 268 kts | 114° |
| 2026-05-06 11:19 | 64.04758 | -22.35474 | 10952 ft | 283 kts | 114° |
| 2026-05-06 11:19 | 64.03770 | -22.31407 | 11390 ft | 303 kts | 116° |
| 2026-05-06 11:20 | 64.02699 | -22.27068 | 11804 ft | 323 kts | 116° |
| 2026-05-06 11:20 | 64.01568 | -22.22521 | 12375 ft | 335 kts | 115° |
| 2026-05-06 11:20 | 64.00408 | -22.17873 | 13207 ft | 339 kts | 116° |
| 2026-05-06 11:20 | 63.99233 | -22.13177 | 14009 ft | 343 kts | 116° |
| 2026-05-06 11:21 | 63.98042 | -22.08432 | 14731 ft | 347 kts | 116° |
| 2026-05-06 11:21 | 63.96836 | -22.03635 | 15419 ft | 351 kts | 116° |
| 2026-05-06 11:21 | 63.95634 | -21.98861 | 16124 ft | 354 kts | 116° |
| 2026-05-06 11:21 | 63.94401 | -21.93982 | 16827 ft | 357 kts | 116° |
| 2026-05-06 11:22 | 63.93160 | -21.89074 | 17552 ft | 359 kts | 116° |
| 2026-05-06 11:22 | 63.91908 | -21.84138 | 18224 ft | 362 kts | 116° |
| 2026-05-06 11:22 | 63.90643 | -21.79155 | 18803 ft | 366 kts | 116° |
| 2026-05-06 11:22 | 63.89362 | -21.74129 | 19412 ft | 368 kts | 116° |
| 2026-05-06 11:23 | 63.88073 | -21.69086 | 19981 ft | 371 kts | 116° |
| 2026-05-06 11:23 | 63.86773 | -21.64004 | 20484 ft | 375 kts | 116° |
| 2026-05-06 11:23 | 63.85460 | -21.58886 | 21063 ft | 376 kts | 116° |
| 2026-05-06 11:23 | 63.84172 | -21.53835 | 21797 ft | 374 kts | 116° |
| 2026-05-06 11:24 | 63.82840 | -21.48694 | 22159 ft | 382 kts | 116° |
| 2026-05-06 11:24 | 63.81494 | -21.43495 | 22700 ft | 384 kts | 116° |
| 2026-05-06 11:24 | 63.80138 | -21.38261 | 23240 ft | 387 kts | 116° |
| 2026-05-06 11:24 | 63.78768 | -21.32986 | 23735 ft | 390 kts | 116° |
| 2026-05-06 11:25 | 63.77390 | -21.27683 | 24131 ft | 393 kts | 116° |
| 2026-05-06 11:25 | 63.76358 | -21.22016 | 24492 ft | 389 kts | 99° |
| 2026-05-06 11:25 | 63.75910 | -21.15968 | 24808 ft | 393 kts | 96° |
| 2026-05-06 11:25 | 63.75495 | -21.09945 | 25185 ft | 395 kts | 96° |
| 2026-05-06 11:26 | 63.75086 | -21.03777 | 25550 ft | 400 kts | 96° |
| 2026-05-06 11:26 | 63.74683 | -20.97525 | 25852 ft | 404 kts | 96° |
| 2026-05-06 11:26 | 63.74280 | -20.91220 | 26190 ft | 408 kts | 96° |
| 2026-05-06 11:26 | 63.73873 | -20.84840 | 26512 ft | 412 kts | 96° |
| 2026-05-06 11:27 | 63.73462 | -20.78446 | 26826 ft | 415 kts | 96° |
| 2026-05-06 11:27 | 63.73043 | -20.71946 | 27151 ft | 419 kts | 96° |
| 2026-05-06 11:27 | 63.72618 | -20.65415 | 27461 ft | 422 kts | 96° |
| 2026-05-06 11:27 | 63.72187 | -20.58835 | 27762 ft | 426 kts | 96° |
| 2026-05-06 11:28 | 63.71755 | -20.52283 | 28091 ft | 429 kts | 97° |
| 2026-05-06 11:28 | 63.71266 | -20.45646 | 28470 ft | 431 kts | 103° |
| 2026-05-06 11:28 | 63.70162 | -20.39313 | 28786 ft | 436 kts | 113° |
| 2026-05-06 11:28 | 63.68914 | -20.33056 | 29014 ft | 440 kts | 112° |
| 2026-05-06 11:29 | 63.67654 | -20.26754 | 29325 ft | 443 kts | 112° |
| 2026-05-06 11:29 | 63.66368 | -20.20419 | 29603 ft | 446 kts | 112° |
| 2026-05-06 11:29 | 63.65064 | -20.14048 | 29882 ft | 449 kts | 113° |
| 2026-05-06 11:29 | 63.63749 | -20.07644 | 30162 ft | 452 kts | 113° |
| 2026-05-06 11:30 | 63.62422 | -20.01208 | 30394 ft | 455 kts | 113° |
| 2026-05-06 11:30 | 63.61105 | -19.94837 | 30610 ft | 458 kts | 113° |
| 2026-05-06 11:30 | 63.59755 | -19.88330 | 30826 ft | 461 kts | 112° |
| 2026-05-06 11:30 | 63.58392 | -19.81777 | 30948 ft | 466 kts | 113° |
| 2026-05-06 11:31 | 63.57015 | -19.75177 | 31185 ft | 468 kts | 113° |
| 2026-05-06 11:31 | 63.55630 | -19.68564 | 31479 ft | 468 kts | 114° |
| 2026-05-06 11:31 | 63.54241 | -19.61953 | 31724 ft | 470 kts | 114° |
| 2026-05-06 11:31 | 63.52840 | -19.55303 | 31981 ft | 472 kts | 113° |
| 2026-05-06 11:32 | 63.51430 | -19.48632 | 32167 ft | 475 kts | 114° |
| 2026-05-06 11:32 | 63.50042 | -19.42083 | 32488 ft | 475 kts | 114° |
| 2026-05-06 11:32 | 63.48621 | -19.35408 | 32745 ft | 476 kts | 114° |
| 2026-05-06 11:32 | 63.47193 | -19.28719 | 32995 ft | 477 kts | 114° |
| 2026-05-06 11:33 | 63.45756 | -19.22007 | 33246 ft | 479 kts | 114° |
| 2026-05-06 11:33 | 63.44311 | -19.15278 | 33364 ft | 482 kts | 114° |
| 2026-05-06 11:33 | 63.42859 | -19.08539 | 33741 ft | 481 kts | 114° |
| 2026-05-06 11:33 | 63.41405 | -19.01811 | 34037 ft | 480 kts | 115° |
| 2026-05-06 11:34 | 63.39948 | -18.95087 | 34256 ft | 482 kts | 115° |
| 2026-05-06 11:34 | 63.38480 | -18.88342 | 34439 ft | 484 kts | 114° |
| 2026-05-06 11:34 | 63.37025 | -18.81672 | 34560 ft | 487 kts | 115° |
| 2026-05-06 11:34 | 63.35544 | -18.74907 | 34831 ft | 485 kts | 115° |
| 2026-05-06 11:35 | 63.34063 | -18.68168 | 35099 ft | 483 kts | 115° |
| 2026-05-06 11:35 | 63.32587 | -18.61467 | 35396 ft | 482 kts | 115° |
| 2026-05-06 11:35 | 63.31103 | -18.54754 | 35561 ft | 484 kts | 115° |
| 2026-05-06 11:35 | 63.29608 | -18.48013 | 35663 ft | 487 kts | 115° |
| 2026-05-06 11:36 | 63.28111 | -18.41281 | 35995 ft | 484 kts | 115° |
| 2026-05-06 11:36 | 63.26615 | -18.34575 | 36223 ft | 484 kts | 115° |
| 2026-05-06 11:36 | 63.25116 | -18.27878 | 36477 ft | 484 kts | 115° |
| 2026-05-06 11:36 | 63.23634 | -18.21278 | 36638 ft | 485 kts | 115° |
| 2026-05-06 11:37 | 63.22126 | -18.14578 | 36753 ft | 488 kts | 115° |
| 2026-05-06 11:37 | 63.20607 | -18.07858 | 37033 ft | 485 kts | 115° |
| 2026-05-06 11:37 | 63.19095 | -18.01188 | 37210 ft | 485 kts | 116° |
| 2026-05-06 11:38 | 63.16065 | -17.87874 | 37151 ft | 485 kts | 115° |
| 2026-05-06 11:38 | 63.13001 | -17.74504 | 37164 ft | 488 kts | 115° |
| 2026-05-06 11:39 | 63.09955 | -17.61291 | 37154 ft | 483 kts | 115° |
| 2026-05-06 11:39 | 63.06888 | -17.48066 | 37143 ft | 486 kts | 116° |
| 2026-05-06 11:40 | 63.03786 | -17.34772 | 37135 ft | 487 kts | 116° |
| 2026-05-06 11:40 | 63.00687 | -17.21577 | 37123 ft | 484 kts | 116° |
| 2026-05-06 11:41 | 62.97586 | -17.08451 | 37132 ft | 489 kts | 117° |
| 2026-05-06 11:41 | 62.94437 | -16.95203 | 37138 ft | 487 kts | 117° |
| 2026-05-06 11:42 | 62.91300 | -16.82078 | 37150 ft | 486 kts | 117° |
| 2026-05-06 11:42 | 62.88131 | -16.68908 | 37144 ft | 489 kts | 117° |
| 2026-05-06 11:43 | 62.84976 | -16.55870 | 37130 ft | 483 kts | 117° |
| 2026-05-06 11:43 | 62.81808 | -16.42856 | 37128 ft | 487 kts | 117° |
| 2026-05-06 11:44 | 62.76988 | -16.23208 | 37116 ft | 488 kts | 118° |
| 2026-05-06 11:44 | 62.73771 | -16.10187 | 37115 ft | 488 kts | 118° |
| 2026-05-06 11:45 | 62.70544 | -15.97207 | 37131 ft | 491 kts | 118° |
| 2026-05-06 11:45 | 62.67286 | -15.84177 | 37101 ft | 486 kts | 118° |
| 2026-05-06 11:46 | 62.64034 | -15.71244 | 37116 ft | 489 kts | 118° |
| 2026-05-06 11:46 | 62.60742 | -15.58234 | 37102 ft | 492 kts | 118° |
| 2026-05-06 11:47 | 62.57482 | -15.45422 | 37069 ft | 485 kts | 119° |
| 2026-05-06 11:47 | 62.54192 | -15.32569 | 37097 ft | 491 kts | 119° |
| 2026-05-06 11:48 | 62.50858 | -15.19619 | 37083 ft | 492 kts | 119° |
| 2026-05-06 11:48 | 62.47528 | -15.06761 | 37070 ft | 489 kts | 119° |
| 2026-05-06 11:49 | 62.44206 | -14.94005 | 37070 ft | 493 kts | 119° |
| 2026-05-06 11:49 | 62.40834 | -14.81130 | 37080 ft | 491 kts | 120° |
| 2026-05-06 11:50 | 62.37473 | -14.68375 | 37076 ft | 489 kts | 120° |
| 2026-05-06 11:50 | 62.34089 | -14.55603 | 37068 ft | 494 kts | 120° |
| 2026-05-06 11:51 | 62.30685 | -14.42824 | 37078 ft | 489 kts | 120° |
| 2026-05-06 11:51 | 62.27322 | -14.30281 | 37080 ft | 488 kts | 120° |
| 2026-05-06 11:52 | 62.23905 | -14.17597 | 37073 ft | 493 kts | 120° |
| 2026-05-06 11:52 | 62.20473 | -14.04938 | 37072 ft | 489 kts | 121° |
| 2026-05-06 11:53 | 62.17045 | -13.92362 | 37071 ft | 489 kts | 121° |
| 2026-05-06 11:53 | 62.13585 | -13.79737 | 37065 ft | 493 kts | 121° |
| 2026-05-06 11:54 | 62.10157 | -13.67301 | 37072 ft | 487 kts | 121° |
| 2026-05-06 11:54 | 62.06705 | -13.54842 | 37061 ft | 488 kts | 121° |
| 2026-05-06 11:55 | 62.03233 | -13.42382 | 37061 ft | 489 kts | 121° |
| 2026-05-06 11:55 | 61.99757 | -13.29977 | 37054 ft | 487 kts | 121° |
| 2026-05-06 11:56 | 61.96295 | -13.17688 | 37058 ft | 488 kts | 122° |
| 2026-05-06 11:56 | 61.92791 | -13.05322 | 37057 ft | 489 kts | 122° |
| 2026-05-06 11:57 | 61.89281 | -12.93000 | 37051 ft | 488 kts | 122° |
| 2026-05-06 11:57 | 61.85760 | -12.80704 | 37050 ft | 487 kts | 122° |
| 2026-05-06 11:58 | 61.82259 | -12.68542 | 37050 ft | 487 kts | 122° |
| 2026-05-06 11:58 | 61.78719 | -12.56316 | 37051 ft | 487 kts | 122° |
| 2026-05-06 11:59 | 61.75167 | -12.44110 | 37050 ft | 487 kts | 122° |
| 2026-05-06 11:59 | 61.71608 | -12.31946 | 37043 ft | 487 kts | 123° |
| 2026-05-06 12:00 | 61.68034 | -12.19795 | 37032 ft | 488 kts | 123° |
| 2026-05-06 12:00 | 61.64471 | -12.07746 | 37060 ft | 490 kts | 123° |
| 2026-05-06 12:01 | 61.60858 | -11.95591 | 37046 ft | 489 kts | 123° |
| 2026-05-06 12:01 | 61.57245 | -11.83503 | 37044 ft | 489 kts | 123° |
| 2026-05-06 12:02 | 61.53618 | -11.71432 | 37039 ft | 489 kts | 123° |
| 2026-05-06 12:02 | 61.50005 | -11.59470 | 37045 ft | 489 kts | 123° |
| 2026-05-06 12:03 | 61.46356 | -11.47450 | 37046 ft | 489 kts | 123° |
| 2026-05-06 12:03 | 61.42694 | -11.35452 | 37024 ft | 490 kts | 124° |
| 2026-05-06 12:04 | 61.39030 | -11.23511 | 37049 ft | 492 kts | 124° |
| 2026-05-06 12:04 | 61.35338 | -11.11539 | 37043 ft | 491 kts | 124° |
| 2026-05-06 12:05 | 61.31634 | -10.99592 | 37042 ft | 491 kts | 124° |
| 2026-05-06 12:05 | 61.27922 | -10.87665 | 37045 ft | 491 kts | 124° |
| 2026-05-06 12:06 | 61.24202 | -10.75769 | 37043 ft | 491 kts | 124° |
| 2026-05-06 12:06 | 61.20495 | -10.63973 | 37042 ft | 491 kts | 124° |
| 2026-05-06 12:07 | 61.16752 | -10.52119 | 37042 ft | 491 kts | 124° |
| 2026-05-06 12:07 | 61.13007 | -10.40316 | 37049 ft | 490 kts | 124° |
| 2026-05-06 12:08 | 61.09254 | -10.28548 | 37042 ft | 490 kts | 125° |
| 2026-05-06 12:08 | 61.05519 | -10.16892 | 37040 ft | 490 kts | 125° |
| 2026-05-06 12:09 | 61.01750 | -10.05184 | 37041 ft | 490 kts | 125° |
| 2026-05-06 12:09 | 60.99608 | -9.99779 | 37013 ft | 485 kts | 140° |
| 2026-05-06 12:09 | 60.96958 | -9.95562 | 37064 ft | 481 kts | 146° |
| 2026-05-06 12:10 | 60.91555 | -9.87260 | 37050 ft | 486 kts | 146° |
| 2026-05-06 12:10 | 60.86134 | -9.79087 | 37035 ft | 486 kts | 146° |
| 2026-05-06 12:11 | 60.80676 | -9.70918 | 37040 ft | 486 kts | 146° |
| 2026-05-06 12:11 | 60.75214 | -9.62779 | 37037 ft | 486 kts | 146° |
| 2026-05-06 12:12 | 60.69742 | -9.54660 | 37026 ft | 485 kts | 147° |
| 2026-05-06 12:12 | 60.64278 | -9.46586 | 37040 ft | 485 kts | 147° |
| 2026-05-06 12:13 | 60.58664 | -9.39282 | 37033 ft | 478 kts | 160° |
| 2026-05-06 12:13 | 60.52594 | -9.33648 | 37020 ft | 480 kts | 158° |
| 2026-05-06 12:14 | 60.46527 | -9.27991 | 37038 ft | 480 kts | 159° |
| 2026-05-06 12:14 | 60.40455 | -9.22367 | 37027 ft | 480 kts | 159° |
| 2026-05-06 12:15 | 60.34382 | -9.16766 | 37035 ft | 480 kts | 159° |
| 2026-05-06 12:15 | 60.28340 | -9.11216 | 37038 ft | 480 kts | 159° |
| 2026-05-06 12:16 | 60.22262 | -9.05656 | 37041 ft | 480 kts | 159° |
| 2026-05-06 12:16 | 60.16183 | -9.00118 | 37039 ft | 480 kts | 159° |
| 2026-05-06 12:17 | 60.10103 | -8.94601 | 37029 ft | 479 kts | 160° |
| 2026-05-06 12:17 | 60.04078 | -8.89156 | 37032 ft | 479 kts | 160° |
| 2026-05-06 12:18 | 59.97999 | -8.83685 | 37029 ft | 479 kts | 160° |
| 2026-05-06 12:18 | 59.91925 | -8.78240 | 37031 ft | 479 kts | 160° |
| 2026-05-06 12:19 | 59.85847 | -8.72815 | 37015 ft | 479 kts | 160° |
| 2026-05-06 12:19 | 59.79802 | -8.67438 | 37035 ft | 479 kts | 160° |
| 2026-05-06 12:20 | 59.73715 | -8.62047 | 37035 ft | 479 kts | 160° |
| 2026-05-06 12:20 | 59.67628 | -8.56677 | 37036 ft | 479 kts | 160° |
| 2026-05-06 12:21 | 59.61539 | -8.51328 | 37039 ft | 479 kts | 160° |
| 2026-05-06 12:21 | 59.55433 | -8.45984 | 37041 ft | 482 kts | 160° |
| 2026-05-06 12:22 | 59.49350 | -8.40682 | 37031 ft | 481 kts | 160° |
| 2026-05-06 12:22 | 59.43226 | -8.35365 | 37029 ft | 481 kts | 160° |
| 2026-05-06 12:23 | 59.37099 | -8.30067 | 37036 ft | 481 kts | 160° |
| 2026-05-06 12:23 | 59.30973 | -8.24790 | 37013 ft | 481 kts | 160° |
| 2026-05-06 12:24 | 59.24878 | -8.19561 | 37032 ft | 481 kts | 160° |
| 2026-05-06 12:24 | 59.18746 | -8.14321 | 37034 ft | 481 kts | 160° |
| 2026-05-06 12:25 | 59.12613 | -8.09100 | 37032 ft | 481 kts | 160° |
| 2026-05-06 12:25 | 59.06472 | -8.03892 | 37009 ft | 481 kts | 160° |
| 2026-05-06 12:26 | 59.00329 | -7.98704 | 37037 ft | 481 kts | 160° |
| 2026-05-06 12:26 | 58.94227 | -7.93570 | 37036 ft | 481 kts | 160° |
| 2026-05-06 12:27 | 58.88082 | -7.88421 | 37035 ft | 481 kts | 160° |
| 2026-05-06 12:27 | 58.82413 | -7.83687 | 37041 ft | 481 kts | 160° |
| 2026-05-06 12:28 | 58.76258 | -7.78568 | 37017 ft | 483 kts | 160° |
| 2026-05-06 12:28 | 58.70111 | -7.73474 | 37041 ft | 484 kts | 160° |
| 2026-05-06 12:29 | 58.63929 | -7.68372 | 37039 ft | 484 kts | 160° |
| 2026-05-06 12:29 | 58.57741 | -7.63284 | 37040 ft | 484 kts | 160° |
| 2026-05-06 12:30 | 58.51551 | -7.58215 | 37042 ft | 484 kts | 160° |
| 2026-05-06 12:30 | 58.45399 | -7.53194 | 37042 ft | 484 kts | 160° |
| 2026-05-06 12:31 | 58.39205 | -7.48159 | 37042 ft | 484 kts | 160° |
| 2026-05-06 12:31 | 58.33021 | -7.43152 | 37053 ft | 481 kts | 160° |
| 2026-05-06 12:32 | 58.26885 | -7.38203 | 37046 ft | 479 kts | 161° |
| 2026-05-06 12:32 | 58.20776 | -7.33294 | 37048 ft | 481 kts | 160° |
| 2026-05-06 12:33 | 58.14612 | -7.28359 | 37045 ft | 481 kts | 160° |
| 2026-05-06 12:33 | 58.08450 | -7.23444 | 37042 ft | 481 kts | 160° |
| 2026-05-06 12:34 | 58.02280 | -7.18542 | 37045 ft | 481 kts | 160° |
| 2026-05-06 12:34 | 57.96115 | -7.13662 | 37038 ft | 481 kts | 160° |
| 2026-05-06 12:35 | 57.89983 | -7.08826 | 37047 ft | 481 kts | 160° |
| 2026-05-06 12:35 | 57.83814 | -7.03979 | 37042 ft | 481 kts | 160° |
| 2026-05-06 12:36 | 57.77636 | -6.99143 | 37045 ft | 481 kts | 160° |
| 2026-05-06 12:36 | 57.71466 | -6.94331 | 37021 ft | 481 kts | 160° |
| 2026-05-06 12:37 | 57.65326 | -6.89560 | 37045 ft | 482 kts | 160° |
| 2026-05-06 12:37 | 57.59131 | -6.84764 | 37042 ft | 481 kts | 160° |
| 2026-05-06 12:38 | 57.52944 | -6.79992 | 37042 ft | 481 kts | 160° |
| 2026-05-06 12:38 | 57.46753 | -6.75235 | 37012 ft | 481 kts | 160° |
| 2026-05-06 12:39 | 57.40608 | -6.70530 | 37046 ft | 481 kts | 160° |
| 2026-05-06 12:39 | 57.34411 | -6.65803 | 37043 ft | 481 kts | 161° |
| 2026-05-06 12:40 | 57.28215 | -6.61093 | 37048 ft | 481 kts | 161° |
| 2026-05-06 12:40 | 57.22041 | -6.56417 | 36599 ft | 476 kts | 161° |
| 2026-05-06 12:41 | 57.18952 | -6.54085 | 35456 ft | 486 kts | 161° |
| 2026-05-06 12:41 | 57.15839 | -6.51738 | 34645 ft | 489 kts | 161° |
| 2026-05-06 12:41 | 57.12712 | -6.49384 | 33998 ft | 487 kts | 161° |
| 2026-05-06 12:41 | 57.09545 | -6.47007 | 32832 ft | 494 kts | 161° |
| 2026-05-06 12:42 | 57.06390 | -6.44640 | 32233 ft | 488 kts | 161° |
| 2026-05-06 12:42 | 57.03236 | -6.42281 | 31149 ft | 493 kts | 161° |
| 2026-05-06 12:42 | 57.00045 | -6.39897 | 30326 ft | 493 kts | 161° |
| 2026-05-06 12:42 | 56.96886 | -6.37541 | 29574 ft | 489 kts | 161° |
| 2026-05-06 12:43 | 56.93742 | -6.35201 | 28848 ft | 485 kts | 161° |
| 2026-05-06 12:43 | 56.90685 | -6.32930 | 28270 ft | 478 kts | 161° |
| 2026-05-06 12:43 | 56.87620 | -6.30657 | 27636 ft | 473 kts | 161° |
| 2026-05-06 12:43 | 56.84586 | -6.28412 | 27013 ft | 468 kts | 161° |
| 2026-05-06 12:44 | 56.81580 | -6.26190 | 26395 ft | 464 kts | 162° |
| 2026-05-06 12:44 | 56.78592 | -6.23986 | 25776 ft | 461 kts | 162° |
| 2026-05-06 12:44 | 56.75633 | -6.21807 | 25163 ft | 458 kts | 162° |
| 2026-05-06 12:44 | 56.72688 | -6.19642 | 24560 ft | 455 kts | 162° |
| 2026-05-06 12:45 | 56.69759 | -6.17492 | 23952 ft | 452 kts | 162° |
| 2026-05-06 12:45 | 56.66893 | -6.15391 | 23280 ft | 450 kts | 162° |
| 2026-05-06 12:45 | 56.61133 | -6.11178 | 22059 ft | 441 kts | 162° |
| 2026-05-06 12:46 | 56.58305 | -6.09114 | 21472 ft | 436 kts | 161° |
| 2026-05-06 12:46 | 56.55500 | -6.07071 | 20903 ft | 432 kts | 162° |
| 2026-05-06 12:46 | 56.52727 | -6.05054 | 20324 ft | 428 kts | 162° |
| 2026-05-06 12:46 | 56.49974 | -6.03054 | 19765 ft | 425 kts | 161° |
| 2026-05-06 12:47 | 56.47239 | -6.01071 | 19226 ft | 421 kts | 161° |
| 2026-05-06 12:47 | 56.44530 | -5.99110 | 18682 ft | 418 kts | 161° |
| 2026-05-06 12:47 | 56.41878 | -5.97193 | 18071 ft | 415 kts | 161° |
| 2026-05-06 12:47 | 56.39221 | -5.95275 | 17510 ft | 410 kts | 161° |
| 2026-05-06 12:48 | 56.36584 | -5.93375 | 16976 ft | 406 kts | 161° |
| 2026-05-06 12:48 | 56.33980 | -5.91501 | 16467 ft | 401 kts | 161° |
| 2026-05-06 12:48 | 56.31407 | -5.89651 | 15999 ft | 396 kts | 161° |
| 2026-05-06 12:48 | 56.28862 | -5.87825 | 15516 ft | 392 kts | 161° |
| 2026-05-06 12:49 | 56.26342 | -5.85999 | 15013 ft | 389 kts | 159° |
| 2026-05-06 12:49 | 56.24080 | -5.83333 | 14491 ft | 392 kts | 139° |
| 2026-05-06 12:49 | 56.22412 | -5.79483 | 14063 ft | 391 kts | 120° |
| 2026-05-06 12:49 | 56.21287 | -5.75131 | 13623 ft | 387 kts | 115° |
| 2026-05-06 12:50 | 56.20180 | -5.70732 | 13106 ft | 384 kts | 116° |
| 2026-05-06 12:50 | 56.19078 | -5.66396 | 12635 ft | 381 kts | 116° |
| 2026-05-06 12:50 | 56.17980 | -5.62092 | 12177 ft | 376 kts | 116° |
| 2026-05-06 12:50 | 56.16894 | -5.57848 | 11723 ft | 373 kts | 116° |
| 2026-05-06 12:51 | 56.15818 | -5.53650 | 11327 ft | 367 kts | 116° |
| 2026-05-06 12:51 | 56.14768 | -5.49551 | 11161 ft | 356 kts | 116° |
| 2026-05-06 12:51 | 56.13749 | -5.45580 | 10995 ft | 345 kts | 116° |
| 2026-05-06 12:51 | 56.12772 | -5.41782 | 10828 ft | 335 kts | 116° |
| 2026-05-06 12:52 | 56.11807 | -5.38039 | 10669 ft | 326 kts | 116° |
| 2026-05-06 12:52 | 56.10865 | -5.34403 | 10510 ft | 317 kts | 116° |
| 2026-05-06 12:52 | 56.09946 | -5.30870 | 10353 ft | 308 kts | 116° |
| 2026-05-06 12:52 | 56.09054 | -5.27438 | 10206 ft | 299 kts | 116° |
| 2026-05-06 12:53 | 56.08195 | -5.24110 | 10056 ft | 291 kts | 115° |
| 2026-05-06 12:53 | 56.07367 | -5.20823 | 9780 ft | 288 kts | 116° |
| 2026-05-06 12:53 | 56.06554 | -5.17559 | 9437 ft | 287 kts | 115° |
| 2026-05-06 12:53 | 56.06443 | -5.17108 | 9385 ft | 287 kts | 115° |
| 2026-05-06 12:54 | 56.05934 | -5.15044 | 9187 ft | 285 kts | 116° |
| 2026-05-06 12:54 | 56.05149 | -5.11850 | 9100 ft | 274 kts | 115° |
| 2026-05-06 12:54 | 56.04393 | -5.08779 | 9072 ft | 268 kts | 116° |
| 2026-05-06 12:54 | 56.03636 | -5.05734 | 8848 ft | 268 kts | 115° |
| 2026-05-06 12:55 | 56.02871 | -5.02698 | 8511 ft | 268 kts | 116° |
| 2026-05-06 12:55 | 56.02119 | -4.99669 | 8188 ft | 266 kts | 115° |
| 2026-05-06 12:55 | 56.01173 | -4.96879 | 7862 ft | 261 kts | 138° |
| 2026-05-06 12:55 | 55.99683 | -4.95143 | 7547 ft | 255 kts | 160° |
| 2026-05-06 12:56 | 55.98029 | -4.94015 | 7248 ft | 254 kts | 162° |
| 2026-05-06 12:56 | 55.96398 | -4.92955 | 6961 ft | 253 kts | 162° |
| 2026-05-06 12:56 | 55.94740 | -4.91910 | 6667 ft | 252 kts | 162° |
| 2026-05-06 12:56 | 55.93085 | -4.90874 | 6352 ft | 251 kts | 162° |
| 2026-05-06 12:57 | 55.91436 | -4.89858 | 6043 ft | 250 kts | 163° |
| 2026-05-06 12:57 | 55.89789 | -4.88828 | 5650 ft | 251 kts | 163° |
| 2026-05-06 12:57 | 55.88133 | -4.87803 | 5304 ft | 253 kts | 162° |
| 2026-05-06 12:57 | 55.86457 | -4.86786 | 4931 ft | 256 kts | 162° |
| 2026-05-06 12:58 | 55.84764 | -4.85786 | 4550 ft | 257 kts | 162° |
| 2026-05-06 12:58 | 55.83101 | -4.84703 | 4189 ft | 254 kts | 152° |
| 2026-05-06 12:58 | 55.81723 | -4.82809 | 3832 ft | 253 kts | 138° |
| 2026-05-06 12:58 | 55.80433 | -4.80702 | 3507 ft | 251 kts | 138° |
| 2026-05-06 12:59 | 55.79153 | -4.78641 | 3209 ft | 246 kts | 137° |
| 2026-05-06 12:59 | 55.77892 | -4.76592 | 2835 ft | 245 kts | 137° |
| 2026-05-06 12:59 | 55.76767 | -4.74342 | 2488 ft | 243 kts | 119° |
| 2026-05-06 12:59 | 55.76338 | -4.71520 | 2432 ft | 233 kts | 99° |
| 2026-05-06 13:00 | 55.76174 | -4.68698 | 2421 ft | 229 kts | 98° |
| 2026-05-06 13:00 | 55.76096 | -4.65862 | 2390 ft | 232 kts | 85° |
| 2026-05-06 13:00 | 55.76649 | -4.63192 | 2380 ft | 234 kts | 59° |
| 2026-05-06 13:00 | 55.77711 | -4.60977 | 2411 ft | 235 kts | 50° |
| 2026-05-06 13:01 | 55.78796 | -4.58965 | 2362 ft | 220 kts | 48° |
| 2026-05-06 13:01 | 55.79805 | -4.57106 | 2186 ft | 204 kts | 46° |
| 2026-05-06 13:01 | 55.80764 | -4.55380 | 1918 ft | 183 kts | 49° |
| 2026-05-06 13:01 | 55.81563 | -4.53771 | 1570 ft | 166 kts | 51° |
| 2026-05-06 13:02 | 55.82319 | -4.52373 | 1326 ft | 150 kts | 47° |
| 2026-05-06 13:02 | 55.83041 | -4.51063 | 1076 ft | 148 kts | 50° |
| 2026-05-06 13:02 | 55.83737 | -4.49731 | 852 ft | 147 kts | 47° |
| 2026-05-06 13:02 | 55.84465 | -4.48431 | 659 ft | 150 kts | 49° |
| 2026-05-06 13:03 | 55.85169 | -4.47124 | 418 ft | 141 kts | 49° |
| 2026-05-06 13:03 | 55.85823 | -4.45884 | 221 ft | 141 kts | 49° |
| 2026-05-06 13:03 | 55.86511 | -4.44604 | 46 ft | 141 kts | 47° |
| 2026-05-06 13:03 | 55.87119 | -4.43477 | 31 ft | 108 kts | 46° |
| 2026-05-06 13:04 | 55.87468 | -4.42818 | 31 ft | 48 kts | 47° |
| 2026-05-06 13:04 | 55.87654 | -4.42471 | 31 ft | 38 kts | 46° |
| 2026-05-06 13:04 | 55.87752 | -4.42252 | 31 ft | 16 kts | 89° |
| 2026-05-06 13:04 | 55.87687 | -4.42154 | 31 ft | 13 kts | 171° |
| 2026-05-06 13:05 | 55.87594 | -4.42206 | 31 ft | 15 kts | 219° |
| 2026-05-06 13:05 | 55.87517 | -4.42354 | 31 ft | 17 kts | 227° |
| 2026-05-06 13:05 | 55.87429 | -4.42517 | 31 ft | 20 kts | 226° |
| 2026-05-06 13:05 | 55.87307 | -4.42644 | 31 ft | 22 kts | 199° |
| 2026-05-06 13:06 | 55.87178 | -4.42733 | 31 ft | 18 kts | 202° |
| 2026-05-06 13:06 | 55.87051 | -4.42814 | 31 ft | 20 kts | 198° |
| 2026-05-06 13:06 | 55.86927 | -4.42912 | 31 ft | 20 kts | 207° |
| 2026-05-06 13:06 | 55.86840 | -4.43058 | 31 ft | 16 kts | 261° |
| 2026-05-06 13:07 | 55.86811 | -4.43263 | 31 ft | 18 kts | 251° |
| 2026-05-06 13:07 | 55.86770 | -4.43490 | 31 ft | 20 kts | 256° |
| 2026-05-06 13:07 | 55.86712 | -4.43615 | 31 ft | 11 kts | 166° |
| 2026-05-06 13:07 | 55.86629 | -4.43571 | 31 ft | 14 kts | 164° |
| 2026-05-06 13:08 | 55.86553 | -4.43536 | 31 ft | 7 kts | 179° |
| 2026-05-06 13:08 | 55.86536 | -4.43566 | 31 ft | 4 kts | 244° |
| 2026-05-06 13:08 | 55.86523 | -4.43635 | 31 ft | 7 kts | 253° |
| 2026-05-06 13:08 | 55.86519 | -4.43659 | 31 ft | 2 kts | 253° |
| 2026-05-06 13:09 | 55.86517 | -4.43673 | 31 ft | 1 kts | 253° |
| 2026-05-06 13:09 | 55.86517 | -4.43676 | 31 ft | 0 kts | 253° |